Time;durP1;ratioP1;P1;durP2;ratioP2;P2;SDS_P1;SDS_P2;PMS_P1;PMS_P2;Temp;Humidity;BMP_temperature;BMP_pressure;BME280_temperature;BME280_humidity;BME280_pressure;Samples;Min_cycle;Max_cycle;Signal;HPM_P1;HPM_P2
2021/04/20 00:05:43;;;;;;;13.87;11.90;;;;;;;7.47;99.77;100492.53;20637922;28;20464;-55
2021/04/20 00:15:43;;;;;;;15.00;11.33;;;;;;;7.30;98.87;100469.47;20636169;28;20222;-54
2021/04/20 00:25:44;;;;;;;12.33;9.93;;;;;;;7.35;100.00;100491.34;20628859;28;20655;-53
2021/04/20 00:35:44;;;;;;;14.03;10.23;;;;;;;7.34;100.00;100475.50;20642220;28;20465;-58
2021/04/20 00:45:45;;;;;;;16.40;12.73;;;;;;;7.32;100.00;100475.56;20620666;28;20295;-55
2021/04/20 00:55:45;;;;;;;16.47;11.03;;;;;;;7.37;100.00;100475.31;20640606;28;20997;-53
2021/04/20 01:05:46;;;;;;;16.77;12.87;;;;;;;7.13;100.00;100464.09;20620632;28;20741;-53
2021/04/20 01:15:49;;;;;;;13.97;11.47;;;;;;;6.84;100.00;100466.34;20639094;28;20229;-53
2021/04/20 01:25:49;;;;;;;15.50;11.10;;;;;;;6.36;100.00;100468.56;20636689;28;20221;-53
2021/04/20 01:35:50;;;;;;;14.40;10.97;;;;;;;6.09;100.00;100463.56;20648886;28;20240;-53
2021/04/20 01:45:51;;;;;;;16.17;12.55;;;;;;;6.13;100.00;100465.16;20645506;28;20241;-59
2021/04/20 01:56:02;;;;;;;17.00;13.93;;;;;;;6.12;100.00;100467.88;20638692;28;20314;-55
2021/04/20 02:06:03;;;;;;;15.53;11.50;;;;;;;5.89;100.00;100458.28;20658886;28;20229;-58
2021/04/20 02:16:05;;;;;;;16.93;12.07;;;;;;;5.65;100.00;100461.91;20632937;28;20270;-57
2021/04/20 02:26:08;;;;;;;14.23;11.77;;;;;;;5.44;100.00;100464.50;20652526;28;20259;-57
2021/04/20 02:36:09;;;;;;;14.83;12.13;;;;;;;5.37;100.00;100462.19;20629032;28;20863;-53
2021/04/20 02:46:10;;;;;;;15.53;11.53;;;;;;;5.24;100.00;100461.81;20649087;28;20236;-54
2021/04/20 02:56:16;;;;;;;10.37;9.13;;;;;;;5.08;100.00;100460.69;20633483;28;20244;-59
2021/04/20 03:06:18;;;;;;;13.57;11.27;;;;;;;4.89;100.00;100455.28;20641522;28;20226;-53
2021/04/20 03:16:20;;;;;;;13.60;11.00;;;;;;;4.68;100.00;100442.88;20640548;28;20868;-62
2021/04/20 03:26:26;;;;;;;15.13;11.10;;;;;;;4.34;100.00;100438.88;20645712;28;20234;-57
2021/04/20 03:36:32;;;;;;;13.27;11.70;;;;;;;4.25;100.00;100440.97;20646219;28;20250;-59
2021/04/20 03:46:35;;;;;;;13.93;11.87;;;;;;;4.12;100.00;100434.41;20621909;28;20390;-53
2021/04/20 03:56:37;;;;;;;14.30;10.50;;;;;;;4.23;100.00;100443.66;20643410;28;20314;-59
2021/04/20 04:06:39;;;;;;;16.50;13.30;;;;;;;4.53;100.00;100440.81;20622900;28;20736;-73
2021/04/20 04:16:42;;;;;;;13.00;10.87;;;;;;;5.14;100.00;100434.03;20713562;28;20317;-55
2021/04/20 04:26:48;;;;;;;14.50;12.10;;;;;;;5.80;100.00;100437.41;20708515;28;20281;-63
2021/04/20 04:36:48;;;;;;;17.80;13.87;;;;;;;6.37;100.00;100441.16;20717510;28;20228;-55
2021/04/20 04:46:49;;;;;;;17.43;14.37;;;;;;;6.94;100.00;100447.34;20708856;28;20826;-54
2021/04/20 04:56:50;;;;;;;16.93;14.53;;;;;;;7.04;100.00;100443.31;20690962;28;20465;-58
2021/04/20 05:06:58;;;;;;;16.20;13.37;;;;;;;7.13;100.00;100438.41;20717425;28;20221;-58
2021/04/20 05:16:58;;;;;;;13.87;12.10;;;;;;;7.28;100.00;100441.25;20707370;28;20226;-52
2021/04/20 05:26:59;;;;;;;15.82;13.45;;;;;;;7.49;100.00;100446.38;20684181;28;20233;-52
2021/04/20 05:37:00;;;;;;;15.60;12.40;;;;;;;7.84;100.00;100449.09;20697669;28;20302;-53
2021/04/20 05:47:08;;;;;;;13.10;11.37;;;;;;;8.25;100.00;100442.47;20717200;28;20234;-55
2021/04/20 05:57:09;;;;;;;10.97;9.67;;;;;;;8.75;100.00;100443.38;20758400;28;20261;-56
2021/04/20 06:07:10;;;;;;;11.43;9.68;;;;;;;9.21;100.00;100449.66;20799358;28;20227;-66
2021/04/20 06:17:14;;;;;;;16.17;11.57;;;;;;;9.71;98.81;100444.94;20809808;28;20967;-53
2021/04/20 06:27:15;;;;;;;13.10;11.00;;;;;;;10.23;97.54;100431.22;20722347;28;20751;-55
2021/04/20 06:37:16;;;;;;;10.70;9.60;;;;;;;10.68;96.66;100424.81;20683670;28;20247;-62
2021/04/20 06:47:45;;;;;;;12.53;9.53;;;;;;;11.06;93.05;100411.69;20665618;28;20228;-58
2021/04/20 06:57:58;;;;;;;9.83;8.67;;;;;;;11.50;92.69;100434.63;20680093;28;20233;-56
2021/04/20 07:08:23;;;;;;;9.53;8.57;;;;;;;11.82;88.27;100416.50;20662287;28;20946;-53
2021/04/20 07:18:42;;;;;;;8.63;7.73;;;;;;;12.34;87.92;100416.41;20677809;28;20240;-54
2021/04/20 07:29:20;;;;;;;6.47;5.87;;;;;;;13.00;82.00;100412.56;20661292;28;20623;-55
2021/04/20 07:39:23;;;;;;;4.00;3.60;;;;;;;13.96;77.37;100421.47;20675564;28;20638;-54
2021/04/20 07:49:33;;;;;;;4.20;3.80;;;;;;;14.55;73.35;100403.41;20657356;28;20306;-54
2021/04/20 07:59:52;;;;;;;2.97;2.77;;;;;;;14.93;63.44;100402.16;20669138;28;20226;-53
2021/04/20 08:09:53;;;;;;;2.77;2.57;;;;;;;15.35;68.04;100363.69;20665304;28;21113;-60
2021/04/20 08:20:08;;;;;;;4.50;3.50;;;;;;;15.94;55.33;100395.47;20658882;28;20255;-55
2021/04/20 08:30:21;;;;;;;3.60;3.30;;;;;;;16.33;56.35;100382.25;20670017;28;20232;-56
2021/04/20 08:40:28;;;;;;;3.40;3.10;;;;;;;16.63;58.74;100386.84;20648977;28;20235;-55
2021/04/20 08:50:38;;;;;;;3.20;2.90;;;;;;;16.35;56.82;100378.44;20670363;28;20224;-63
2021/04/20 09:00:38;;;;;;;4.00;3.60;;;;;;;15.88;58.91;100377.19;20653838;28;20232;-65
2021/04/20 09:10:54;;;;;;;3.87;3.57;;;;;;;15.85;59.17;100374.75;20679207;28;20280;-55
2021/04/20 09:21:04;;;;;;;4.13;3.53;;;;;;;16.20;59.15;100364.47;20653496;28;20237;-55
2021/04/20 09:31:17;;;;;;;4.77;4.33;;;;;;;16.52;55.10;100347.34;20668159;28;21114;-60
2021/04/20 09:41:37;;;;;;;6.47;4.50;;;;;;;16.64;57.41;100354.38;20677822;28;20232;-56
2021/04/20 09:51:46;;;;;;;3.97;3.57;;;;;;;16.93;55.97;100344.50;20678288;28;20232;-64
2021/04/20 10:02:01;;;;;;;3.67;3.37;;;;;;;16.80;52.07;100335.81;20663326;28;20224;-61
2021/04/20 10:12:11;;;;;;;4.00;3.50;;;;;;;17.03;55.86;100327.50;20682355;28;20317;-53
2021/04/20 10:22:15;;;;;;;4.40;3.80;;;;;;;17.11;55.04;100322.28;20661390;28;20248;-55
2021/04/20 10:32:20;;;;;;;3.67;3.40;;;;;;;17.27;55.24;100311.75;20678965;28;20272;-54
2021/04/20 10:42:31;;;;;;;4.27;3.77;;;;;;;17.80;50.92;100308.66;20661288;28;20755;-53
2021/04/20 10:52:34;;;;;;;5.73;4.97;;;;;;;18.52;48.71;100302.56;20676225;28;20278;-53
2021/04/20 11:02:37;;;;;;;4.43;4.03;;;;;;;18.83;52.59;100287.78;20669588;28;20229;-53
2021/04/20 11:12:42;;;;;;;5.43;4.10;;;;;;;19.48;50.07;100284.84;20669774;28;20267;-53
2021/04/20 11:22:45;;;;;;;4.90;4.40;;;;;;;20.09;50.48;100271.25;20673931;28;20236;-55
2021/04/20 11:32:48;;;;;;;4.30;4.00;;;;;;;19.77;52.99;100259.22;20659982;28;20287;-62
2021/04/20 11:42:49;;;;;;;4.10;3.70;;;;;;;19.60;52.49;100257.41;20677602;28;20260;-54
2021/04/20 11:52:58;;;;;;;4.20;3.80;;;;;;;19.15;49.65;100245.84;20655492;28;20231;-55
2021/04/20 12:03:08;;;;;;;4.03;3.73;;;;;;;19.24;50.18;100236.78;20671344;28;20274;-52
2021/04/20 12:13:09;;;;;;;4.13;3.73;;;;;;;20.06;53.77;100230.94;20654637;28;20241;-52
2021/04/20 12:23:09;;;;;;;4.53;4.10;;;;;;;20.18;52.11;100220.66;20674980;28;20228;-56
2021/04/20 12:33:22;;;;;;;4.00;3.70;;;;;;;19.39;48.07;100205.44;20664481;28;21093;-68
2021/04/20 12:43:25;;;;;;;3.80;3.50;;;;;;;18.59;53.46;100211.81;20666308;28;20601;-53
2021/04/20 12:53:28;;;;;;;3.47;3.27;;;;;;;18.44;53.40;100199.78;20666537;28;20620;-53
2021/04/20 13:03:30;;;;;;;3.83;3.53;;;;;;;18.96;53.11;100188.16;20672885;28;20208;-65
2021/04/20 13:13:31;;;;;;;3.63;3.33;;;;;;;19.86;51.86;100172.59;20710611;28;20232;-57
2021/04/20 13:23:37;;;;;;;4.27;3.87;;;;;;;19.75;50.65;100174.59;20655013;28;20280;-63
2021/04/20 13:33:43;;;;;;;3.90;3.57;;;;;;;18.87;50.54;100169.34;20670846;28;20304;-57
2021/04/20 13:43:48;;;;;;;2.93;2.73;;;;;;;18.38;52.22;100165.25;20656084;28;20232;-52
2021/04/20 13:53:52;;;;;;;4.17;3.53;;;;;;;17.79;51.61;100164.72;20666701;28;20338;-52
2021/04/20 14:03:59;;;;;;;4.33;4.03;;;;;;;16.70;55.71;100126.63;20690051;28;20241;-52
2021/04/20 14:13:59;;;;;;;5.20;4.80;;;;;;;15.91;60.92;100152.69;20697371;28;20689;-57
2021/04/20 14:24:01;;;;;;;5.65;4.97;;;;;;;15.41;59.96;100164.19;20708299;28;20232;-57
2021/04/20 14:34:03;;;;;;;13.87;10.70;;;;;;;14.87;61.20;100168.91;20766826;28;20702;-63
2021/04/20 14:44:28;;;;;;;5.40;4.90;;;;;;;14.97;56.32;100169.84;20808800;28;20781;-52
2021/04/20 14:54:33;;;;;;;4.47;4.07;;;;;;;15.23;62.46;100172.97;20793625;28;21021;-53
2021/04/20 15:04:36;;;;;;;3.80;3.50;;;;;;;15.57;62.94;100176.34;20810549;28;20973;-54
2021/04/20 15:14:51;;;;;;;3.43;3.13;;;;;;;15.96;59.23;100158.50;20789332;28;20227;-56
2021/04/20 15:24:54;;;;;;;3.60;3.30;;;;;;;16.55;62.29;100158.47;20720984;28;20224;-55
2021/04/20 15:34:57;;;;;;;4.13;3.13;;;;;;;16.81;60.52;100146.19;20707544;28;20323;-60
2021/04/20 15:44:59;;;;;;;4.43;4.07;;;;;;;16.85;60.11;100144.06;20721868;28;20228;-63
2021/04/20 15:55:03;;;;;;;5.33;4.40;;;;;;;16.90;62.17;100145.31;20712168;28;20524;-53
2021/04/20 16:05:14;;;;;;;5.37;4.70;;;;;;;16.70;60.83;100143.63;20717489;28;20739;-53
2021/04/20 16:15:17;;;;;;;8.17;7.37;;;;;;;16.32;63.98;100140.88;20713806;28;20278;-58
2021/04/20 16:25:19;;;;;;;6.90;6.17;;;;;;;15.73;65.86;100142.56;20709980;28;20232;-55
2021/04/20 16:35:26;;;;;;;5.73;4.63;;;;;;;15.25;62.36;100115.41;20721838;28;20772;-54
2021/04/20 16:45:31;;;;;;;4.13;3.73;;;;;;;14.92;63.45;100103.06;20694777;28;20239;-53
2021/04/20 16:55:40;;;;;;;4.33;3.93;;;;;;;14.74;65.92;100116.22;20669436;28;20230;-52
2021/04/20 17:05:59;;;;;;;5.43;4.27;;;;;;;14.67;64.79;100112.34;20646654;28;20227;-53
2021/04/20 17:16:27;;;;;;;4.53;4.23;;;;;;;14.37;66.30;100102.31;20664784;28;21344;-60
2021/04/20 17:26:27;;;;;;;5.13;4.63;;;;;;;13.97;69.47;100102.09;20651544;28;21145;-57
2021/04/20 17:36:42;;;;;;;6.20;5.60;;;;;;;13.73;67.97;100117.50;20661944;28;20228;-66
2021/04/20 17:46:58;;;;;;;9.33;7.50;;;;;;;13.55;69.84;100109.09;20656429;28;20333;-58
2021/04/20 17:57:09;;;;;;;7.33;6.63;;;;;;;13.39;71.07;100119.34;20662372;28;20340;-53
2021/04/20 18:07:46;;;;;;;7.60;6.10;;;;;;;12.95;68.47;100104.00;20674254;28;20268;-61
2021/04/20 18:18:14;;;;;;;7.00;6.30;;;;;;;12.94;72.17;100150.50;20673766;28;20362;-52
2021/04/20 18:28:44;;;;;;;5.93;4.97;;;;;;;12.57;75.15;100174.72;20680673;28;20225;-54
2021/04/20 18:38:53;;;;;;;13.77;9.90;;;;;;;12.10;76.95;100190.75;20657966;28;20251;-60
2021/04/20 18:49:24;;;;;;;7.80;6.20;;;;;;;11.79;78.70;100187.63;20673644;28;20938;-59
2021/04/20 18:59:27;;;;;;;5.53;5.03;;;;;;;11.46;80.24;100179.28;20658367;28;20221;-57
2021/04/20 19:09:41;;;;;;;7.03;5.93;;;;;;;11.26;81.02;100179.81;20677133;28;20232;-70
2021/04/20 19:19:47;;;;;;;8.90;7.00;;;;;;;10.94;83.41;100174.88;20661710;28;20236;-53
2021/04/20 19:30:09;;;;;;;6.90;6.27;;;;;;;10.63;85.49;100180.53;20675829;28;20239;-54
2021/04/20 19:40:40;;;;;;;6.90;6.23;;;;;;;10.49;86.17;100164.63;20648555;28;20232;-52
2021/04/20 19:50:43;;;;;;;12.37;9.43;;;;;;;10.38;88.72;100152.00;20668002;28;20252;-52
2021/04/20 20:00:44;;;;;;;10.53;9.40;;;;;;;10.54;88.25;100152.66;20667907;28;20290;-53
2021/04/20 20:10:45;;;;;;;9.50;8.50;;;;;;;10.69;87.83;100148.97;20657662;28;20800;-53
2021/04/20 20:20:55;;;;;;;9.43;8.47;;;;;;;10.83;87.70;100129.38;20672757;28;20471;-67
2021/04/20 20:31:03;;;;;;;9.77;8.77;;;;;;;10.88;87.03;100126.38;20651186;28;20721;-53
2021/04/20 20:41:13;;;;;;;9.40;8.57;;;;;;;10.89;88.21;100107.56;20669907;28;20244;-55
2021/04/20 20:51:15;;;;;;;8.90;8.00;;;;;;;10.91;86.81;100088.78;20650743;28;20572;-69
2021/04/20 21:01:16;;;;;;;6.73;6.13;;;;;;;11.04;84.74;100087.84;20661105;28;20509;-65
2021/04/20 21:11:17;;;;;;;7.03;6.33;;;;;;;11.32;79.25;100084.06;20654293;28;20229;-54
2021/04/20 21:21:30;;;;;;;7.90;5.93;;;;;;;11.49;82.40;100096.22;20665653;28;20590;-54
2021/04/20 21:31:34;;;;;;;9.27;8.37;;;;;;;11.38;83.79;100096.13;20665749;28;21614;-53
2021/04/20 21:41:38;;;;;;;11.63;10.43;;;;;;;11.29;83.83;100096.78;20666826;28;20267;-53
2021/04/20 21:51:42;;;;;;;10.23;9.13;;;;;;;11.16;85.58;100089.63;20696197;28;20367;-61
2021/04/20 22:01:42;;;;;;;9.57;8.57;;;;;;;11.04;85.71;100094.97;20727382;28;20266;-55
2021/04/20 22:12:00;;;;;;;9.90;8.83;;;;;;;10.95;84.15;100093.81;20739248;28;20316;-53
2021/04/20 22:22:01;;;;;;;10.17;9.07;;;;;;;10.89;85.90;100091.56;20730110;28;20294;-55
2021/04/20 22:32:03;;;;;;;10.80;9.63;;;;;;;10.87;86.66;100085.47;20711300;28;20221;-55
2021/04/20 22:42:06;;;;;;;16.87;12.27;;;;;;;10.79;86.21;100093.16;20731820;28;20241;-55
2021/04/20 22:52:12;;;;;;;12.13;10.23;;;;;;;10.72;86.84;100076.72;20712045;28;20242;-53
2021/04/20 23:02:15;;;;;;;9.80;8.53;;;;;;;10.68;87.80;100082.38;20728978;28;20268;-61
2021/04/20 23:12:20;;;;;;;10.03;9.03;;;;;;;10.59;88.45;100070.50;20714868;28;20334;-65
2021/04/20 23:22:58;;;;;;;11.77;10.07;;;;;;;10.52;88.40;100057.69;20723010;28;20228;-66
2021/04/20 23:32:59;;;;;;;12.30;10.37;;;;;;;10.41;89.65;100056.59;20704525;28;20236;-59
2021/04/20 23:43:00;;;;;;;14.97;13.37;;;;;;;10.28;91.20;100053.03;20713807;28;20232;-65
2021/04/20 23:53:01;;;;;;;13.63;11.67;;;;;;;10.07;92.25;100041.13;20725238;28;20325;-53
